Terminal Aerodrome Forecast
Issued by NWS Charleston, SC

Home | Current Version | Previous Version | Text Only | Print | Product List | Glossary On
Versions: 1 2 3 4 5 6 7 8 9 10 11 12 13 14 15 16 17 18 19 20 21 22 23 24 25 26 27 28 29 30
000
FTUS42 KCHS 301400 AAA
TAFCHS
TAF AMD
KCHS 301432Z 3015/0112 02008KT P6SM SKC
     FM301900 03007KT P6SM SCT040
     FM010000 VRB03KT P6SM SKC
     FM010900 00000KT 5SM BR SKC=

USA.gov is the U.S. government's official web portal to all federal, state and local government web resources and services.